KCZZ

Campo Airport

Campo, California, USA
METAR KCZZ 151852Z AUTO 23013KT 11/05 A3007 RMK AO1 SLP171 T01060050
Observed Flight Rules
Feb-15 @ 18:52 UTC (16 minutes ago)
Wind
230° at 13 knots
Temperatures Readings
Current 11°C / 52°F
Dewpoint 5°C / 41°F
Humidity 67%
Altimeter 30.07" Hg
Pressure 1017.1 hPa
Elevation 807
METAR KCZZ 151852Z AUTO 23013KT 11/05 A3007 RMK AO1 SLP171 T01060050
Observed Flight Rules
Feb-15 @ 18:52 UTC
(16 minutes ago)
Wind
230° at 13 knots
Temperature Dewpoint
11°C / 52°F 5°C / 41°F
Humidity Altimeter Pressure
67% 30.07" Hg 1017.1 hPa